Startpagina
METAR-TAF:

METAR-TAF

Vliegvelden :

Rexburg-Madison County Airport

Rexburg, Idaho, Verenigde Staten

breedte: 43-49-54N, lengte: 111-48-22W, hoogte: 1481 m

Actueel weer

Dit bericht is 21 minuten geleden gemaakt, om 02:53 UTC
Wind 6 kt uit het zuidoosten
Temperatuur 8°C
Vochtigheid 87%
Druk 1013 hPa
Zicht: 14.5 km
Geheel bewolkt op 4500 ft
lichte regen

METAR: KRXE 250253Z AUTO 13006KT 9SM -RA OVC045 08/06 A2992 RMK AO2 SLP125 P0009 60036 T00780056 50009

Tijdstip: 21:14 (03:14 UTC)


TAF: ontbreekt

Waarnemingen en weersverwachtingen van meer dan 4000 vliegvelden (METAR en TAF).

De beschikbare stations zijn de gele en rode punten op de kaart.

Ga met uw muis naar het station om de naam te zien.

Klik dan om waarnemingen en weersverwachtingen te zien.

kaart wijzigen: klik op de groene knoppen met een zwart kruis om in te zoomen, op de groene knop met een streepje om uit te zoomen of op de groene pijlen voor aangrenzende kaarten.


METAR-TAF: